createdAt,value
2022-12-18T00:00:45.869Z,19.92
2022-12-18T00:03:14.657Z,19.38
2022-12-18T00:05:51.038Z,17.65
2022-12-18T00:08:20.989Z,15.60
2022-12-18T00:10:50.809Z,12.43
2022-12-18T00:13:20.242Z,11.20
2022-12-18T00:15:50.225Z,10.82
2022-12-18T00:18:20.660Z,10.90
2022-12-18T00:20:50.879Z,11.13
2022-12-18T00:23:19.716Z,10.60
2022-12-18T00:25:48.343Z,9.63
2022-12-18T00:28:16.975Z,8.25
2022-12-18T00:30:46.691Z,8.45
2022-12-18T00:33:18.072Z,7.70
2022-12-18T00:35:46.730Z,7.68
2022-12-18T00:38:18.689Z,8.48
2022-12-18T00:40:47.413Z,7.40
2022-12-18T00:43:15.145Z,7.10
2022-12-18T00:45:45.578Z,7.85
2022-12-18T00:48:14.569Z,6.88
2022-12-18T00:50:46.892Z,6.57
2022-12-18T00:53:15.650Z,7.72
2022-12-18T00:55:48.419Z,6.88
2022-12-18T00:58:19.430Z,6.30
2022-12-18T01:00:48.079Z,5.40
2022-12-18T01:03:17.054Z,5.30
2022-12-18T01:05:47.009Z,5.78
2022-12-18T01:08:15.639Z,4.53
2022-12-18T01:10:46.864Z,4.38
2022-12-18T01:13:15.728Z,4.38
2022-12-18T01:15:51.062Z,4.00
2022-12-18T01:18:21.769Z,4.22
2022-12-18T01:20:50.489Z,4.40
2022-12-18T01:23:20.289Z,4.30
2022-12-18T01:25:50.331Z,4.30
2022-12-18T01:28:18.882Z,4.65
2022-12-18T01:30:47.919Z,4.72
2022-12-18T01:33:16.399Z,4.53
2022-12-18T01:35:45.850Z,4.63
2022-12-18T01:38:14.671Z,4.43
2022-12-18T01:40:43.330Z,3.72
2022-12-18T01:43:13.790Z,3.90
2022-12-18T01:45:43.769Z,3.95
2022-12-18T01:48:13.500Z,3.47
2022-12-18T01:50:44.591Z,3.85
2022-12-18T01:53:16.679Z,3.38
2022-12-18T01:55:49.379Z,3.20
2022-12-18T01:58:22.172Z,4.13
2022-12-18T02:00:50.812Z,3.22
2022-12-18T02:03:21.609Z,3.63
2022-12-18T02:06:00.095Z,3.60
2022-12-18T02:08:36.799Z,3.92
2022-12-18T02:11:12.718Z,3.72
2022-12-18T02:13:48.586Z,3.65
2022-12-18T02:16:27.134Z,3.30
2022-12-18T02:19:00.879Z,3.00
2022-12-18T02:21:43.669Z,2.97
2022-12-18T02:24:27.969Z,2.90
2022-12-18T02:27:02.740Z,2.72
2022-12-18T02:29:37.528Z,3.10
2022-12-18T02:32:11.963Z,3.08
2022-12-18T02:34:42.559Z,3.38
2022-12-18T02:37:17.049Z,3.40
2022-12-18T02:39:49.442Z,3.13
2022-12-18T02:42:21.419Z,2.97
2022-12-18T02:44:51.207Z,2.90
2022-12-18T02:47:23.032Z,3.28
2022-12-18T02:50:00.550Z,3.20
2022-12-18T02:52:38.108Z,3.35
2022-12-18T02:55:22.398Z,2.80
2022-12-18T02:57:57.512Z,3.35
2022-12-18T03:00:31.949Z,3.00
2022-12-18T03:03:08.280Z,3.40
2022-12-18T03:05:43.539Z,3.30
2022-12-18T03:08:20.478Z,3.40
2022-12-18T03:11:00.361Z,3.53
2022-12-18T03:13:36.268Z,3.40
2022-12-18T03:16:09.262Z,3.50
2022-12-18T03:18:45.987Z,3.38
2022-12-18T03:21:19.990Z,3.38
2022-12-18T03:23:54.020Z,3.20
2022-12-18T03:26:27.319Z,3.40
2022-12-18T03:29:02.477Z,3.75
2022-12-18T03:31:33.980Z,3.67
2022-12-18T03:34:07.007Z,3.67
2022-12-18T03:36:35.968Z,3.03
2022-12-18T03:39:04.887Z,3.78
2022-12-18T03:41:44.010Z,3.67
2022-12-18T03:44:18.569Z,4.25
2022-12-18T03:46:56.258Z,3.80
2022-12-18T03:49:32.149Z,4.32
2022-12-18T03:52:07.012Z,4.28
2022-12-18T03:54:39.664Z,5.13
2022-12-18T03:57:13.095Z,4.88
2022-12-18T03:59:45.142Z,5.60
2022-12-18T04:02:16.434Z,5.32
2022-12-18T04:04:49.579Z,6.13
2022-12-18T04:07:20.121Z,5.78
2022-12-18T04:09:51.618Z,6.57
2022-12-18T04:12:20.249Z,6.55
2022-12-18T04:14:52.742Z,7.07
2022-12-18T04:17:23.119Z,7.30
2022-12-18T04:19:52.700Z,7.50
2022-12-18T04:22:22.306Z,7.63
2022-12-18T04:24:51.767Z,7.80
2022-12-18T04:27:21.751Z,8.10
2022-12-18T04:29:51.925Z,8.20
2022-12-18T04:32:20.337Z,9.07
2022-12-18T04:34:50.009Z,8.93
2022-12-18T04:37:19.004Z,8.90
2022-12-18T04:39:48.074Z,9.88
2022-12-18T04:42:17.647Z,8.13
2022-12-18T04:44:46.429Z,9.20
2022-12-18T04:47:16.541Z,8.80
2022-12-18T04:49:45.277Z,9.18
2022-12-18T04:52:13.814Z,8.77
2022-12-18T04:54:43.503Z,8.25
2022-12-18T04:57:13.309Z,10.63
2022-12-18T04:59:41.963Z,9.35
2022-12-18T05:02:10.836Z,8.75
2022-12-18T05:04:41.849Z,8.98
2022-12-18T05:07:11.165Z,8.93
2022-12-18T05:09:39.887Z,8.65
2022-12-18T05:12:08.720Z,9.27
2022-12-18T05:14:37.268Z,9.15
2022-12-18T05:17:06.770Z,7.80
2022-12-18T05:19:35.655Z,8.63
2022-12-18T05:22:11.471Z,9.23
2022-12-18T05:24:41.232Z,8.27
2022-12-18T05:27:10.150Z,8.57
2022-12-18T05:29:38.948Z,8.52
2022-12-18T05:32:07.603Z,9.70
2022-12-18T05:34:36.218Z,8.80
2022-12-18T05:37:04.763Z,9.05
2022-12-18T05:39:35.879Z,7.97
2022-12-18T05:42:04.552Z,8.52
2022-12-18T05:44:34.038Z,8.38
2022-12-18T05:47:02.650Z,8.10
2022-12-18T05:49:32.591Z,8.18
2022-12-18T05:52:02.140Z,8.20
2022-12-18T05:54:32.420Z,7.80
2022-12-18T05:57:02.563Z,7.28
2022-12-18T05:59:32.136Z,7.57
2022-12-18T06:02:00.758Z,7.93
2022-12-18T06:04:30.175Z,7.40
2022-12-18T06:07:01.016Z,6.85
2022-12-18T06:09:29.759Z,7.18
2022-12-18T06:11:58.342Z,7.88
2022-12-18T06:14:28.566Z,8.70
2022-12-18T06:16:57.379Z,7.88
2022-12-18T06:19:26.101Z,8.35
2022-12-18T06:22:00.105Z,8.00
2022-12-18T06:24:28.966Z,8.10
2022-12-18T06:26:58.899Z,7.63
2022-12-18T06:29:29.039Z,8.05
2022-12-18T06:31:59.688Z,8.40
2022-12-18T06:34:29.402Z,7.38
2022-12-18T06:36:57.843Z,7.53
2022-12-18T06:39:26.714Z,6.50
2022-12-18T06:41:59.293Z,7.00
2022-12-18T06:44:30.526Z,6.28
2022-12-18T06:47:00.111Z,6.63
2022-12-18T06:49:30.725Z,6.45
2022-12-18T06:51:59.537Z,5.35
2022-12-18T06:54:28.164Z,5.32
2022-12-18T06:56:59.974Z,5.57
2022-12-18T06:59:31.144Z,5.43
2022-12-18T07:02:00.427Z,4.97
2022-12-18T07:04:31.260Z,5.05
2022-12-18T07:07:01.987Z,4.95
2022-12-18T07:09:30.754Z,4.50
2022-12-18T07:11:59.716Z,4.18
2022-12-18T07:14:28.469Z,4.22
2022-12-18T07:17:00.015Z,4.22
2022-12-18T07:19:29.883Z,4.30
2022-12-18T07:21:59.877Z,3.80
2022-12-18T07:24:28.289Z,3.90
2022-12-18T07:26:59.532Z,3.72
2022-12-18T07:29:34.064Z,4.75
2022-12-18T07:32:06.803Z,3.80
2022-12-18T07:34:35.499Z,3.88
2022-12-18T07:37:06.102Z,4.20
2022-12-18T07:39:34.500Z,4.63
2022-12-18T07:42:20.608Z,4.30
2022-12-18T07:44:50.053Z,5.75
2022-12-18T07:47:21.430Z,5.50
2022-12-18T07:49:51.563Z,5.43
2022-12-18T07:52:24.297Z,6.13
2022-12-18T07:54:56.843Z,5.78
2022-12-18T07:57:49.525Z,6.68
2022-12-18T08:00:16.235Z,5.72
2022-12-18T08:02:46.600Z,5.63
2022-12-18T08:05:17.432Z,6.18
2022-12-18T08:07:46.904Z,5.90
2022-12-18T08:10:15.523Z,6.50
2022-12-18T08:12:44.235Z,7.13
2022-12-18T08:15:19.398Z,7.35
2022-12-18T08:17:49.901Z,7.65
2022-12-18T08:20:19.618Z,7.45
2022-12-18T08:22:48.457Z,7.85
2022-12-18T08:25:17.303Z,8.07
2022-12-18T08:27:46.852Z,7.00
2022-12-18T08:30:16.051Z,6.65
2022-12-18T08:32:44.564Z,7.35
2022-12-18T08:35:17.567Z,7.05
2022-12-18T08:37:47.608Z,7.18
2022-12-18T08:40:16.379Z,7.95
2022-12-18T08:43:02.334Z,6.40
2022-12-18T08:45:31.046Z,8.30
2022-12-18T08:47:59.975Z,8.98
2022-12-18T08:50:31.253Z,8.30
2022-12-18T08:52:59.742Z,8.30
2022-12-18T08:55:28.254Z,8.18
2022-12-18T08:57:59.550Z,8.38
2022-12-18T09:00:29.957Z,8.68
2022-12-18T09:02:59.607Z,8.15
2022-12-18T09:05:31.585Z,7.20
2022-12-18T09:08:00.209Z,8.73
2022-12-18T09:10:28.654Z,7.07
2022-12-18T09:13:00.244Z,7.35
2022-12-18T09:15:28.639Z,8.52
2022-12-18T09:17:58.636Z,9.00
2022-12-18T09:20:29.581Z,8.40
2022-12-18T09:22:59.737Z,8.40
2022-12-18T09:25:34.487Z,9.00
2022-12-18T09:28:03.415Z,7.57
2022-12-18T09:30:34.691Z,7.80
2022-12-18T09:33:03.896Z,7.95
2022-12-18T09:35:32.563Z,6.90
2022-12-18T09:38:03.744Z,7.53
2022-12-18T09:40:37.736Z,6.85
2022-12-18T09:43:09.879Z,6.53
2022-12-18T09:45:52.316Z,7.35
2022-12-18T09:48:26.305Z,7.30
2022-12-18T09:51:02.681Z,6.38
2022-12-18T09:53:38.129Z,5.28
2022-12-18T09:56:07.622Z,4.60
2022-12-18T09:58:45.572Z,4.90
2022-12-18T10:01:17.956Z,4.65
2022-12-18T10:03:46.742Z,4.90
2022-12-18T10:06:21.132Z,5.07
2022-12-18T10:08:57.631Z,5.03
2022-12-18T10:11:41.585Z,4.45
2022-12-18T10:14:19.062Z,5.20
2022-12-18T10:16:57.363Z,4.93
2022-12-18T10:19:43.863Z,4.82
2022-12-18T10:22:25.288Z,4.68
2022-12-18T10:25:00.956Z,5.65
2022-12-18T10:27:31.029Z,5.40
2022-12-18T10:30:00.636Z,6.18
2022-12-18T10:32:32.699Z,5.38
2022-12-18T10:35:01.599Z,5.72
2022-12-18T10:37:32.232Z,6.03
2022-12-18T10:40:21.480Z,4.70
2022-12-18T10:43:06.791Z,7.38
2022-12-18T10:45:36.434Z,7.40
2022-12-18T10:48:06.508Z,6.72
2022-12-18T10:51:08.998Z,7.40
2022-12-18T10:53:28.967Z,7.03
2022-12-18T10:56:01.521Z,7.50
2022-12-18T10:58:32.954Z,7.55
2022-12-18T11:01:12.051Z,8.55
2022-12-18T11:03:43.412Z,8.30
2022-12-18T11:06:16.009Z,8.50
2022-12-18T11:08:47.084Z,8.35
2022-12-18T11:11:25.435Z,8.50
2022-12-18T11:14:05.168Z,8.48
2022-12-18T11:16:38.726Z,7.65
2022-12-18T11:19:22.805Z,7.35
2022-12-18T11:21:51.393Z,7.78
2022-12-18T11:24:33.986Z,9.10
2022-12-18T11:27:07.636Z,8.63
2022-12-18T11:29:41.933Z,7.78
2022-12-18T11:32:35.159Z,7.72
2022-12-18T11:35:19.324Z,7.35
2022-12-18T11:37:58.811Z,7.45
2022-12-18T11:40:36.575Z,6.93
2022-12-18T11:43:17.421Z,5.78
2022-12-18T11:45:54.441Z,4.88
2022-12-18T11:48:28.296Z,4.82
2022-12-18T11:50:58.514Z,4.72
2022-12-18T11:53:28.990Z,4.43
2022-12-18T11:56:08.422Z,4.70
2022-12-18T11:58:49.447Z,4.32
2022-12-18T12:01:37.615Z,4.40
2022-12-18T12:04:42.965Z,3.85
2022-12-18T12:07:24.304Z,4.00
2022-12-18T12:10:03.754Z,4.20
2022-12-18T12:12:51.319Z,3.90
2022-12-18T12:15:39.344Z,3.25
2022-12-18T12:18:27.085Z,2.72
2022-12-18T12:21:05.913Z,2.50
2022-12-18T12:23:47.392Z,2.75
2022-12-18T12:26:25.754Z,2.78
2022-12-18T12:29:04.009Z,2.85
2022-12-18T12:31:52.394Z,2.70
2022-12-18T12:34:26.300Z,1.95
2022-12-18T12:37:17.350Z,2.13
2022-12-18T12:39:51.458Z,1.83
2022-12-18T12:42:43.919Z,2.00
2022-12-18T12:45:21.315Z,2.28
2022-12-18T12:47:53.383Z,2.30
2022-12-18T12:50:23.716Z,2.10
2022-12-18T12:52:55.830Z,2.05
2022-12-18T12:55:26.947Z,1.90
2022-12-18T12:58:05.506Z,2.03
2022-12-18T13:00:43.771Z,2.00
2022-12-18T13:03:34.324Z,1.63
2022-12-18T13:06:11.764Z,1.55
2022-12-18T13:08:57.769Z,1.70
2022-12-18T13:11:57.829Z,1.70
2022-12-18T13:14:33.960Z,1.80
2022-12-18T13:17:32.306Z,1.92
2022-12-18T13:20:24.546Z,1.85
2022-12-18T13:22:53.958Z,2.20
2022-12-18T13:25:37.603Z,2.10
2022-12-18T13:28:14.378Z,2.80
2022-12-18T13:30:53.285Z,1.80
2022-12-18T13:34:09.417Z,1.58
2022-12-18T13:36:36.395Z,1.67
2022-12-18T13:39:32.677Z,1.60
2022-12-18T13:42:57.907Z,1.70
2022-12-18T13:45:48.781Z,1.40
2022-12-18T13:48:25.293Z,1.98
2022-12-18T13:51:03.283Z,2.50
2022-12-18T13:53:38.786Z,1.83
2022-12-18T13:56:08.388Z,2.28
2022-12-18T13:58:37.398Z,3.05
2022-12-18T14:01:06.314Z,2.05
2022-12-18T14:03:35.186Z,2.15
2022-12-18T14:06:09.550Z,2.30
2022-12-18T14:08:42.955Z,1.50
2022-12-18T14:11:24.034Z,1.40
2022-12-18T14:13:55.484Z,1.83
2022-12-18T14:16:25.560Z,2.30
2022-12-18T14:19:07.289Z,1.83
2022-12-18T14:21:51.576Z,1.90
2022-12-18T14:24:23.687Z,1.90
2022-12-18T14:26:53.963Z,1.90
2022-12-18T14:29:26.504Z,2.00
2022-12-18T14:32:16.484Z,2.13
2022-12-18T14:34:47.350Z,1.60
2022-12-18T14:37:24.394Z,1.73
2022-12-18T14:40:08.742Z,2.10
2022-12-18T14:42:39.697Z,2.20
2022-12-18T14:45:42.126Z,2.78
2022-12-18T14:48:19.107Z,4.75
2022-12-18T14:51:04.208Z,3.35
2022-12-18T14:53:38.354Z,3.17
2022-12-18T14:56:19.356Z,2.17
2022-12-18T14:58:51.554Z,2.35
2022-12-18T15:01:27.771Z,1.63
2022-12-18T15:04:00.952Z,2.13
2022-12-18T15:06:34.048Z,2.30
2022-12-18T15:09:03.950Z,1.92
2022-12-18T15:11:46.358Z,2.75
2022-12-18T15:14:42.416Z,2.28
2022-12-18T15:17:20.808Z,2.47
2022-12-18T15:19:51.477Z,2.47
2022-12-18T15:22:28.479Z,2.58
2022-12-18T15:25:01.857Z,2.60
2022-12-18T15:27:39.158Z,2.75
2022-12-18T15:30:24.639Z,3.20
2022-12-18T15:33:16.496Z,3.40
2022-12-18T15:35:47.198Z,3.42
2022-12-18T15:38:18.485Z,3.03
2022-12-18T15:40:47.114Z,3.17
2022-12-18T15:43:34.500Z,3.15
2022-12-18T15:46:04.211Z,3.90
2022-12-18T15:48:37.925Z,4.22
2022-12-18T15:51:19.518Z,4.93
2022-12-18T15:53:50.419Z,5.22
2022-12-18T15:56:36.735Z,5.68
2022-12-18T15:59:12.753Z,5.85
2022-12-18T16:01:44.607Z,6.82
2022-12-18T16:04:16.891Z,7.90
2022-12-18T16:07:13.342Z,8.30
2022-12-18T16:09:34.179Z,7.10
2022-12-18T16:12:05.116Z,7.05
2022-12-18T16:14:38.843Z,7.75
2022-12-18T16:17:12.705Z,7.40
2022-12-18T16:19:44.666Z,7.35
2022-12-18T16:22:25.286Z,7.55
2022-12-18T16:24:55.231Z,7.32
2022-12-18T16:27:25.205Z,7.82
2022-12-18T16:29:55.539Z,8.68
2022-12-18T16:32:24.906Z,8.88
2022-12-18T16:34:53.606Z,8.30
2022-12-18T16:37:22.252Z,8.25
2022-12-18T16:39:52.821Z,8.93
2022-12-18T16:42:23.298Z,8.35
2022-12-18T16:44:52.258Z,8.13
2022-12-18T16:47:22.351Z,7.72
2022-12-18T16:49:53.699Z,9.27
2022-12-18T16:52:28.747Z,9.52
2022-12-18T16:54:59.409Z,8.38
2022-12-18T16:57:28.200Z,9.15
2022-12-18T17:00:02.981Z,8.43
2022-12-18T17:02:37.012Z,8.65
2022-12-18T17:05:06.847Z,8.27
2022-12-18T17:07:36.070Z,9.80
2022-12-18T17:10:07.307Z,8.43
2022-12-18T17:12:38.943Z,9.00
2022-12-18T17:15:09.825Z,11.63
2022-12-18T17:17:41.103Z,12.43
2022-12-18T17:20:11.793Z,11.73
2022-12-18T17:22:43.314Z,10.95
2022-12-18T17:25:12.023Z,10.38
2022-12-18T17:27:40.893Z,13.68
2022-12-18T17:30:13.452Z,13.50
2022-12-18T17:32:43.533Z,12.35
2022-12-18T17:35:12.292Z,12.43
2022-12-18T17:37:41.408Z,15.20
2022-12-18T17:40:12.289Z,20.15
2022-12-18T17:42:41.013Z,19.08
2022-12-18T17:45:12.331Z,20.50
2022-12-18T17:47:44.434Z,19.50
2022-12-18T17:50:13.092Z,18.50
2022-12-18T17:52:41.577Z,16.15
2022-12-18T17:55:11.345Z,13.07
2022-12-18T17:57:41.130Z,13.10
2022-12-18T18:00:11.968Z,11.63
2022-12-18T18:02:41.303Z,14.25
2022-12-18T18:05:13.606Z,15.38
2022-12-18T18:07:43.689Z,17.02
2022-12-18T18:10:12.746Z,19.75
2022-12-18T18:12:59.015Z,19.65
2022-12-18T18:15:28.590Z,22.35
2022-12-18T18:17:57.261Z,21.10
2022-12-18T18:20:30.640Z,20.95
2022-12-18T18:22:59.924Z,25.40
2022-12-18T18:25:28.850Z,22.95
2022-12-18T18:27:57.560Z,19.67
2022-12-18T18:30:26.231Z,15.05
2022-12-18T18:32:54.944Z,8.18
2022-12-18T18:35:52.411Z,7.63
2022-12-18T18:38:13.740Z,6.72
2022-12-18T18:40:43.305Z,8.18
2022-12-18T18:43:14.053Z,7.25
2022-12-18T18:45:42.786Z,5.30
2022-12-18T18:48:14.475Z,4.38
2022-12-18T18:50:44.359Z,5.22
2022-12-18T18:53:14.379Z,3.97
2022-12-18T18:55:43.970Z,3.80
2022-12-18T18:58:12.830Z,3.80
2022-12-18T19:00:41.701Z,4.78
2022-12-18T19:03:11.391Z,5.88
2022-12-18T19:05:43.069Z,7.18
2022-12-18T19:08:16.227Z,6.85
2022-12-18T19:10:45.331Z,6.80
2022-12-18T19:13:31.752Z,4.80
2022-12-18T19:16:06.209Z,4.70
2022-12-18T19:18:38.257Z,5.03
2022-12-18T19:21:08.277Z,4.90
2022-12-18T19:23:38.216Z,4.60
2022-12-18T19:29:02.723Z,5.10
2022-12-18T19:31:35.642Z,5.30
2022-12-18T19:34:07.053Z,5.63
2022-12-18T19:36:38.714Z,5.70
2022-12-18T19:39:13.823Z,5.90
2022-12-18T19:41:43.075Z,4.80
2022-12-18T19:44:14.266Z,4.80
2022-12-18T19:46:43.607Z,3.92
2022-12-18T19:49:38.456Z,6.88
2022-12-18T19:52:01.149Z,5.90
2022-12-18T19:54:32.160Z,5.22
2022-12-18T19:57:00.605Z,4.55
2022-12-18T19:59:29.231Z,4.75
2022-12-18T20:02:01.044Z,4.20
2022-12-18T20:04:30.020Z,2.70
2022-12-18T20:06:58.864Z,2.75
2022-12-18T20:09:27.955Z,3.80
2022-12-18T20:11:58.682Z,4.00
2022-12-18T20:14:28.939Z,4.57
2022-12-18T20:17:01.029Z,4.43
2022-12-18T20:19:30.413Z,5.03
2022-12-18T20:22:02.269Z,7.00
2022-12-18T20:24:30.997Z,6.32
2022-12-18T20:27:01.013Z,6.05
2022-12-18T20:29:29.743Z,5.15
2022-12-18T20:31:58.866Z,5.68
2022-12-18T20:34:27.459Z,4.90
2022-12-18T20:36:57.450Z,5.28
2022-12-18T20:39:27.770Z,5.50
2022-12-18T20:41:58.710Z,5.82
2022-12-18T20:44:28.857Z,5.10
2022-12-18T20:47:04.014Z,6.60
2022-12-18T20:49:37.607Z,6.50
2022-12-18T20:52:08.150Z,7.22
2022-12-18T20:54:36.767Z,7.35
2022-12-18T20:57:05.540Z,7.70
2022-12-18T20:59:35.710Z,9.38
2022-12-18T21:02:04.388Z,9.43
2022-12-18T21:04:33.372Z,8.18
2022-12-18T21:07:02.996Z,8.88
2022-12-18T21:09:37.462Z,8.07
2022-12-18T21:12:32.489Z,8.93
2022-12-18T21:15:15.342Z,8.55
2022-12-18T21:17:45.505Z,9.20
2022-12-18T21:20:18.157Z,8.50
2022-12-18T21:22:47.395Z,5.22
2022-12-18T21:25:16.200Z,5.00
2022-12-18T21:27:44.939Z,5.25
2022-12-18T21:30:15.682Z,4.95
2022-12-18T21:32:44.454Z,5.45
2022-12-18T21:35:13.022Z,5.30
2022-12-18T21:37:42.728Z,4.80
2022-12-18T21:40:12.430Z,5.18
2022-12-18T21:42:58.831Z,5.55
2022-12-18T21:45:29.000Z,5.57
2022-12-18T21:47:57.832Z,6.00
2022-12-18T21:50:26.493Z,4.70
2022-12-18T21:52:57.540Z,3.63
2022-12-18T21:55:26.101Z,4.00
2022-12-18T21:57:55.876Z,3.67
2022-12-18T22:00:24.786Z,2.97
2022-12-18T22:03:17.645Z,3.13
2022-12-18T22:05:43.434Z,3.53
2022-12-18T22:08:12.662Z,4.50
2022-12-18T22:10:42.285Z,2.97
2022-12-18T22:13:11.214Z,3.60
2022-12-18T22:15:40.103Z,4.03
2022-12-18T22:18:10.373Z,3.22
2022-12-18T22:20:39.209Z,2.63
2022-12-18T22:23:07.823Z,2.03
2022-12-18T22:25:39.661Z,2.72
2022-12-18T22:28:25.850Z,2.38
2022-12-18T22:30:59.695Z,2.70
2022-12-18T22:33:30.347Z,2.50
2022-12-18T22:35:59.167Z,2.28
2022-12-18T22:38:28.176Z,2.90
2022-12-18T22:40:56.929Z,2.70
2022-12-18T22:43:26.050Z,3.03
2022-12-18T22:45:55.029Z,3.00
2022-12-18T22:48:23.943Z,2.50
2022-12-18T22:50:59.508Z,2.38
2022-12-18T22:53:28.870Z,2.30
2022-12-18T22:56:02.531Z,2.65
2022-12-18T22:58:31.131Z,2.92
2022-12-18T23:00:59.586Z,3.75
2022-12-18T23:03:28.422Z,3.65
2022-12-18T23:06:06.081Z,3.70
2022-12-18T23:08:34.970Z,3.67
2022-12-18T23:11:03.814Z,4.10
2022-12-18T23:13:34.247Z,3.58
2022-12-18T23:16:06.970Z,2.58
2022-12-18T23:18:36.435Z,2.30
2022-12-18T23:21:09.122Z,2.40
2022-12-18T23:23:39.341Z,2.40
2022-12-18T23:26:10.661Z,3.38
2022-12-18T23:28:40.348Z,3.45
2022-12-18T23:31:14.041Z,2.80
2022-12-18T23:33:44.817Z,2.55
2022-12-18T23:36:15.959Z,2.75
2022-12-18T23:38:44.585Z,3.20
2022-12-18T23:41:16.271Z,3.92
2022-12-18T23:43:44.978Z,3.97
2022-12-18T23:46:20.114Z,3.63
2022-12-18T23:48:49.348Z,4.13
2022-12-18T23:51:23.657Z,5.15
2022-12-18T23:53:53.209Z,5.03
2022-12-18T23:56:21.978Z,5.10
2022-12-18T23:58:52.696Z,4.75
